createdAt,value
2017-10-26T00:02:16.236Z,7.03
2017-10-26T00:04:44.372Z,7.17
2017-10-26T00:07:12.158Z,7.06
2017-10-26T00:09:39.814Z,6.84
2017-10-26T00:12:07.428Z,6.79
2017-10-26T00:14:35.043Z,6.63
2017-10-26T00:17:02.728Z,6.67
2017-10-26T00:19:31.174Z,6.79
2017-10-26T00:21:59.265Z,6.83
2017-10-26T00:24:27.099Z,6.87
2017-10-26T00:26:54.651Z,6.69
2017-10-26T00:29:22.599Z,6.77
2017-10-26T00:31:50.389Z,6.73
2017-10-26T00:34:17.967Z,6.56
2017-10-26T00:36:45.563Z,6.88
2017-10-26T00:39:13.239Z,6.65
2017-10-26T00:41:41.010Z,6.68
2017-10-26T00:44:08.601Z,6.65
2017-10-26T00:46:36.328Z,6.65
2017-10-26T00:49:03.923Z,6.61
2017-10-26T00:51:31.709Z,6.64
2017-10-26T00:54:00.016Z,6.80
2017-10-26T00:56:27.590Z,6.76
2017-10-26T00:58:55.169Z,6.76
2017-10-26T01:01:22.800Z,6.66
2017-10-26T01:03:50.589Z,6.36
2017-10-26T01:06:18.115Z,6.54
2017-10-26T01:08:45.681Z,6.59
2017-10-26T01:11:13.469Z,6.50
2017-10-26T01:13:41.139Z,6.49
2017-10-26T01:16:08.771Z,6.45
2017-10-26T01:18:36.558Z,6.55
2017-10-26T01:21:04.101Z,6.60
2017-10-26T01:23:31.841Z,6.68
2017-10-26T01:25:59.394Z,6.53
2017-10-26T01:28:27.094Z,6.51
2017-10-26T01:30:54.763Z,6.51
2017-10-26T01:33:22.335Z,6.56
2017-10-26T01:35:49.965Z,6.54
2017-10-26T01:38:17.594Z,6.47
2017-10-26T01:40:45.125Z,6.53
2017-10-26T01:43:12.921Z,6.62
2017-10-26T01:45:40.526Z,6.60
2017-10-26T01:48:08.142Z,6.50
2017-10-26T01:50:36.369Z,6.54
2017-10-26T01:53:04.066Z,6.35
2017-10-26T01:55:32.060Z,6.17
2017-10-26T01:58:00.258Z,6.29
2017-10-26T02:00:28.298Z,6.46
2017-10-26T02:02:56.110Z,6.46
2017-10-26T02:05:23.958Z,6.54
2017-10-26T02:07:51.579Z,6.37
2017-10-26T02:10:19.688Z,6.46
2017-10-26T02:12:47.328Z,6.74
2017-10-26T02:15:15.005Z,6.78
2017-10-26T02:17:42.879Z,6.78
2017-10-26T02:20:10.492Z,6.60
2017-10-26T02:22:38.086Z,6.51
2017-10-26T02:25:05.918Z,6.51
2017-10-26T02:27:33.538Z,6.49
2017-10-26T02:30:13.026Z,6.65
2017-10-26T02:32:41.482Z,6.43
2017-10-26T02:35:09.159Z,6.26
2017-10-26T02:37:36.831Z,6.29
2017-10-26T02:40:04.499Z,6.29
2017-10-26T02:42:32.809Z,6.32
2017-10-26T02:45:00.667Z,6.19
2017-10-26T02:47:28.384Z,6.14
2017-10-26T02:49:56.370Z,6.18
2017-10-26T02:52:24.160Z,6.12
2017-10-26T02:54:51.868Z,6.10
2017-10-26T02:57:20.758Z,6.01
2017-10-26T02:59:48.480Z,5.95
2017-10-26T03:02:16.110Z,6.01
2017-10-26T03:04:43.643Z,5.99
2017-10-26T03:07:12.319Z,5.94
2017-10-26T03:09:39.942Z,5.93
2017-10-26T03:12:07.536Z,5.90
2017-10-26T03:14:35.133Z,5.81
2017-10-26T03:17:02.760Z,5.73
2017-10-26T03:19:30.358Z,5.98
2017-10-26T03:21:57.922Z,5.74
2017-10-26T03:24:25.535Z,5.83
2017-10-26T03:26:54.359Z,5.82
2017-10-26T03:29:21.910Z,5.84
2017-10-26T03:31:50.341Z,5.82
2017-10-26T03:34:18.355Z,5.99
2017-10-26T03:36:46.128Z,5.89
2017-10-26T03:39:13.841Z,5.84
2017-10-26T03:41:42.167Z,5.85
2017-10-26T03:44:09.921Z,5.88
2017-10-26T03:46:37.524Z,5.99
2017-10-26T03:49:05.318Z,6.24
2017-10-26T03:51:32.992Z,6.26
2017-10-26T03:54:00.913Z,6.21
2017-10-26T03:56:28.966Z,6.06
2017-10-26T03:58:56.758Z,6.17
2017-10-26T04:01:24.402Z,6.17
2017-10-26T04:03:52.248Z,6.18
2017-10-26T04:06:19.830Z,6.23
2017-10-26T04:08:47.415Z,6.40
2017-10-26T04:11:15.020Z,6.27
2017-10-26T04:13:42.834Z,6.29
2017-10-26T04:16:10.754Z,6.24
2017-10-26T04:18:38.346Z,6.26
2017-10-26T04:21:06.134Z,6.52
2017-10-26T04:23:33.741Z,6.58
2017-10-26T04:26:02.342Z,6.56
2017-10-26T04:28:30.399Z,6.53
2017-10-26T04:30:58.054Z,6.44
2017-10-26T04:33:27.174Z,6.46
2017-10-26T04:35:54.803Z,6.51
2017-10-26T04:38:22.562Z,6.66
2017-10-26T04:40:50.346Z,6.70
2017-10-26T04:43:18.196Z,6.74
2017-10-26T04:45:45.813Z,7.23
2017-10-26T04:48:13.427Z,7.21
2017-10-26T04:50:40.968Z,7.04
2017-10-26T04:53:08.572Z,6.90
2017-10-26T04:55:36.398Z,6.89
2017-10-26T04:58:04.182Z,7.58
2017-10-26T05:00:31.783Z,10.81
2017-10-26T05:02:59.423Z,9.26
2017-10-26T05:05:26.993Z,8.12
2017-10-26T05:07:54.637Z,7.79
2017-10-26T05:10:22.218Z,7.59
2017-10-26T05:12:49.748Z,7.60
2017-10-26T05:15:17.367Z,7.46
2017-10-26T05:17:44.884Z,7.41
2017-10-26T05:20:12.639Z,7.23
2017-10-26T05:22:40.231Z,7.04
2017-10-26T05:25:07.764Z,7.10
2017-10-26T05:27:35.530Z,7.13
2017-10-26T05:30:06.457Z,7.16
2017-10-26T05:32:34.296Z,7.09
2017-10-26T05:35:01.961Z,7.16
2017-10-26T05:37:29.558Z,7.23
2017-10-26T05:39:57.202Z,7.18
2017-10-26T05:42:24.983Z,7.10
2017-10-26T05:44:52.594Z,7.06
2017-10-26T05:47:20.385Z,7.09
2017-10-26T05:49:47.979Z,7.21
2017-10-26T05:52:15.560Z,7.28
2017-10-26T05:54:43.147Z,7.36
2017-10-26T05:57:10.903Z,7.30
2017-10-26T05:59:38.506Z,7.28
2017-10-26T06:02:06.135Z,7.12
2017-10-26T06:04:33.738Z,7.43
2017-10-26T06:07:01.508Z,7.18
2017-10-26T06:09:29.107Z,6.91
2017-10-26T06:11:56.875Z,7.08
2017-10-26T06:14:24.681Z,7.45
2017-10-26T06:16:52.285Z,7.43
2017-10-26T06:19:20.044Z,7.09
2017-10-26T06:21:47.608Z,7.30
2017-10-26T06:24:15.536Z,7.28
2017-10-26T06:26:43.317Z,7.49
2017-10-26T06:29:11.059Z,7.66
2017-10-26T06:31:38.698Z,7.71
2017-10-26T06:34:06.523Z,7.33
2017-10-26T06:36:34.433Z,7.24
2017-10-26T06:39:02.077Z,7.46
2017-10-26T06:41:29.656Z,7.54
2017-10-26T06:43:57.273Z,7.18
2017-10-26T06:46:24.983Z,7.44
2017-10-26T06:48:52.520Z,7.65
2017-10-26T06:51:20.109Z,7.53
2017-10-26T06:53:47.724Z,7.53
2017-10-26T06:56:15.567Z,7.68
2017-10-26T06:58:43.349Z,7.86
2017-10-26T07:01:10.958Z,8.03
2017-10-26T07:03:38.574Z,8.08
2017-10-26T07:06:06.314Z,8.25
2017-10-26T07:08:33.980Z,8.31
2017-10-26T07:11:01.808Z,8.51
2017-10-26T07:13:29.572Z,8.43
2017-10-26T07:15:57.228Z,8.41
2017-10-26T07:18:25.017Z,8.48
2017-10-26T07:20:52.789Z,8.51
2017-10-26T07:23:20.377Z,8.65
2017-10-26T07:25:48.124Z,8.25
2017-10-26T07:28:15.885Z,7.93
2017-10-26T07:30:43.575Z,8.13
2017-10-26T07:33:11.190Z,8.60
2017-10-26T07:35:38.798Z,8.54
2017-10-26T07:38:06.410Z,8.64
2017-10-26T07:40:34.203Z,8.85
2017-10-26T07:43:02.352Z,9.02
2017-10-26T07:45:30.170Z,9.01
2017-10-26T07:47:57.935Z,8.96
2017-10-26T07:50:25.513Z,9.18
2017-10-26T07:52:53.142Z,9.03
2017-10-26T07:55:20.722Z,9.18
2017-10-26T07:57:48.337Z,9.02
2017-10-26T08:00:15.969Z,9.24
2017-10-26T08:02:43.549Z,9.45
2017-10-26T08:05:11.099Z,9.37
2017-10-26T08:07:38.695Z,9.53
2017-10-26T08:10:06.257Z,9.49
2017-10-26T08:12:33.852Z,9.63
2017-10-26T08:15:01.659Z,9.70
2017-10-26T08:17:29.175Z,9.76
2017-10-26T08:19:56.966Z,9.97
2017-10-26T08:22:24.578Z,9.84
2017-10-26T08:24:52.122Z,9.96
2017-10-26T08:27:19.696Z,9.95
2017-10-26T08:29:47.344Z,10.09
2017-10-26T08:32:14.963Z,10.26
2017-10-26T08:34:42.575Z,10.31
2017-10-26T08:37:10.381Z,10.52
2017-10-26T08:39:37.966Z,10.54
2017-10-26T08:42:05.557Z,10.77
2017-10-26T08:44:33.087Z,10.87
2017-10-26T08:47:00.654Z,10.86
2017-10-26T08:49:28.451Z,10.84
2017-10-26T08:54:23.097Z,11.00
2017-10-26T08:56:50.928Z,11.09
2017-10-26T08:59:18.586Z,11.35
2017-10-26T09:01:46.203Z,11.63
2017-10-26T09:04:13.799Z,11.86
2017-10-26T09:06:42.330Z,12.14
2017-10-26T09:09:09.937Z,12.31
2017-10-26T09:11:37.509Z,12.93
2017-10-26T09:14:05.120Z,14.10
2017-10-26T09:16:32.769Z,14.94
2017-10-26T09:19:00.455Z,15.70
2017-10-26T09:21:28.071Z,16.13
2017-10-26T09:23:55.705Z,16.84
2017-10-26T09:26:23.308Z,17.30
2017-10-26T09:28:50.902Z,16.73
2017-10-26T09:31:18.524Z,17.40
2017-10-26T09:33:46.159Z,18.01
2017-10-26T09:36:13.743Z,17.66
2017-10-26T09:38:41.330Z,17.42
2017-10-26T09:41:08.935Z,18.51
2017-10-26T09:43:36.531Z,18.70
2017-10-26T09:46:04.179Z,18.94
2017-10-26T09:48:31.759Z,18.66
2017-10-26T09:50:59.351Z,19.27
2017-10-26T09:53:27.027Z,19.58
2017-10-26T09:55:54.614Z,19.89
2017-10-26T09:58:22.219Z,20.36
2017-10-26T10:00:49.846Z,19.82
2017-10-26T10:03:17.430Z,19.76
2017-10-26T10:05:45.191Z,19.79
2017-10-26T10:08:12.803Z,19.89
2017-10-26T10:10:40.566Z,19.94
2017-10-26T10:13:08.185Z,19.43
2017-10-26T10:15:35.794Z,19.80
2017-10-26T10:18:03.417Z,19.58
2017-10-26T10:20:31.079Z,19.77
2017-10-26T10:22:58.687Z,19.98
2017-10-26T10:25:26.247Z,19.89
2017-10-26T10:27:53.878Z,19.93
2017-10-26T10:30:21.507Z,19.63
2017-10-26T10:32:49.130Z,19.52
2017-10-26T10:35:16.673Z,19.77
2017-10-26T10:37:44.266Z,19.44
2017-10-26T10:40:11.870Z,19.56
2017-10-26T10:42:39.437Z,19.51
2017-10-26T10:45:07.079Z,18.72
2017-10-26T10:47:34.729Z,19.06
2017-10-26T10:50:02.290Z,18.94
2017-10-26T10:52:29.977Z,18.96
2017-10-26T10:54:57.589Z,19.00
2017-10-26T10:57:25.213Z,18.93
2017-10-26T10:59:58.433Z,18.93
2017-10-26T11:02:26.063Z,18.83
2017-10-26T11:04:53.653Z,19.11
2017-10-26T11:07:21.205Z,19.11
2017-10-26T11:09:48.817Z,19.30
2017-10-26T11:12:16.396Z,19.31
2017-10-26T11:14:43.993Z,19.44
2017-10-26T11:17:11.615Z,19.28
2017-10-26T11:19:39.266Z,19.42
2017-10-26T11:22:07.126Z,19.58
2017-10-26T11:24:34.898Z,19.64
2017-10-26T11:27:03.178Z,19.67
2017-10-26T11:29:30.761Z,19.84
2017-10-26T11:31:58.488Z,19.93
2017-10-26T11:34:26.310Z,19.85
2017-10-26T11:36:54.032Z,19.61
2017-10-26T11:39:21.686Z,19.54
2017-10-26T11:41:49.294Z,19.56
2017-10-26T11:44:16.981Z,19.62
2017-10-26T11:46:44.755Z,19.36
2017-10-26T11:49:12.414Z,19.36
2017-10-26T11:51:39.997Z,19.48
2017-10-26T11:54:07.594Z,19.31
2017-10-26T11:56:35.213Z,19.38
2017-10-26T11:59:03.086Z,19.45
2017-10-26T12:01:30.762Z,19.44
2017-10-26T12:03:58.381Z,19.43
2017-10-26T12:06:26.047Z,19.51
2017-10-26T12:08:53.779Z,19.43
2017-10-26T12:11:21.356Z,19.48
2017-10-26T12:13:48.955Z,19.31
2017-10-26T12:16:16.542Z,19.43
2017-10-26T12:18:44.170Z,19.50
2017-10-26T12:21:11.761Z,19.47
2017-10-26T12:23:39.415Z,19.52
2017-10-26T12:26:07.040Z,19.57
2017-10-26T12:28:34.577Z,19.56
2017-10-26T12:31:02.258Z,19.57
2017-10-26T12:33:29.812Z,19.52
2017-10-26T12:35:57.458Z,19.83
2017-10-26T12:38:25.102Z,19.61
2017-10-26T12:40:52.774Z,19.12
2017-10-26T12:43:20.621Z,18.93
2017-10-26T12:45:48.207Z,18.89
2017-10-26T12:48:15.945Z,18.90
2017-10-26T12:50:43.538Z,19.06
2017-10-26T12:53:11.156Z,19.06
2017-10-26T12:55:38.839Z,19.01
2017-10-26T12:58:06.666Z,19.23
2017-10-26T13:00:34.344Z,19.34
2017-10-26T13:03:02.472Z,19.43
2017-10-26T13:05:30.420Z,19.33
2017-10-26T13:07:58.187Z,19.04
2017-10-26T13:10:25.968Z,18.79
2017-10-26T13:12:53.752Z,18.84
2017-10-26T13:15:21.426Z,18.61
2017-10-26T13:17:49.859Z,18.57
2017-10-26T13:20:17.411Z,18.24
2017-10-26T13:22:45.066Z,18.21
2017-10-26T13:25:12.842Z,18.16
2017-10-26T13:27:40.474Z,17.95
2017-10-26T13:30:08.123Z,18.01
2017-10-26T13:32:35.657Z,18.06
2017-10-26T13:35:04.462Z,17.92
2017-10-26T13:37:32.042Z,17.95
2017-10-26T13:39:59.635Z,17.84
2017-10-26T13:42:27.273Z,17.87
2017-10-26T13:44:54.842Z,17.74
2017-10-26T13:47:22.390Z,17.59
2017-10-26T13:49:50.266Z,17.50
2017-10-26T13:52:17.883Z,17.47
2017-10-26T13:54:45.444Z,17.40
2017-10-26T13:57:13.020Z,17.39
2017-10-26T13:59:41.268Z,17.41
2017-10-26T14:02:08.964Z,17.36
2017-10-26T14:04:36.556Z,17.17
2017-10-26T14:07:04.094Z,17.00
2017-10-26T14:09:31.719Z,17.04
2017-10-26T14:11:59.367Z,17.10
2017-10-26T14:14:26.896Z,17.18
2017-10-26T14:16:54.526Z,17.21
2017-10-26T14:19:22.115Z,17.13
2017-10-26T14:21:49.849Z,17.12
2017-10-26T14:24:17.543Z,17.14
2017-10-26T14:26:45.154Z,16.97
2017-10-26T14:29:12.739Z,16.90
2017-10-26T14:31:40.317Z,16.90
2017-10-26T14:34:07.860Z,16.88
2017-10-26T14:36:35.390Z,16.81
2017-10-26T14:39:03.087Z,16.75
2017-10-26T14:41:30.597Z,16.83
2017-10-26T14:43:58.234Z,16.74
2017-10-26T14:46:25.851Z,16.80
2017-10-26T14:48:53.422Z,16.70
2017-10-26T14:51:20.981Z,16.62
2017-10-26T14:53:48.629Z,16.59
2017-10-26T14:56:16.226Z,16.65
2017-10-26T14:58:43.771Z,16.47
2017-10-26T15:01:11.406Z,16.35
2017-10-26T15:03:38.950Z,16.37
2017-10-26T15:06:06.501Z,16.31
2017-10-26T15:08:34.073Z,16.25
2017-10-26T15:11:01.695Z,16.32
2017-10-26T15:13:29.433Z,16.22
2017-10-26T15:15:57.023Z,16.08
2017-10-26T15:18:24.911Z,16.06
2017-10-26T15:20:52.466Z,15.98
2017-10-26T15:23:20.041Z,15.87
2017-10-26T15:25:47.575Z,15.96
2017-10-26T15:28:15.908Z,15.87
2017-10-26T15:30:43.547Z,15.84
2017-10-26T15:33:11.082Z,15.79
2017-10-26T15:35:38.633Z,15.71
2017-10-26T15:38:06.273Z,15.64
2017-10-26T15:40:33.798Z,15.63
2017-10-26T15:43:01.341Z,15.61
2017-10-26T15:45:28.921Z,15.54
2017-10-26T15:47:56.447Z,15.37
2017-10-26T15:50:24.183Z,15.36
2017-10-26T15:52:51.737Z,15.25
2017-10-26T15:55:19.443Z,15.29
2017-10-26T15:57:46.966Z,15.32
2017-10-26T16:00:14.674Z,15.46
2017-10-26T16:02:42.211Z,15.35
2017-10-26T16:05:09.825Z,15.39
2017-10-26T16:07:37.455Z,15.23
2017-10-26T16:10:08.327Z,14.51
2017-10-26T16:12:35.911Z,15.10
2017-10-26T16:15:03.575Z,15.07
2017-10-26T16:17:31.151Z,15.02
2017-10-26T16:19:58.751Z,14.84
2017-10-26T16:22:26.414Z,14.93
2017-10-26T16:24:54.072Z,14.85
2017-10-26T16:27:21.649Z,14.81
2017-10-26T16:29:49.298Z,14.81
2017-10-26T16:32:16.919Z,14.72
2017-10-26T16:34:44.495Z,14.68
2017-10-26T16:37:12.420Z,14.72
2017-10-26T16:39:40.067Z,14.66
2017-10-26T16:42:07.695Z,14.61
2017-10-26T16:44:35.459Z,14.63
2017-10-26T16:47:03.153Z,14.54
2017-10-26T16:49:30.704Z,14.53
2017-10-26T16:51:58.474Z,14.51
2017-10-26T16:54:26.197Z,14.53
2017-10-26T16:56:53.784Z,14.51
2017-10-26T16:59:21.387Z,14.50
2017-10-26T17:01:48.962Z,14.49
2017-10-26T17:04:16.738Z,14.45
2017-10-26T17:06:44.283Z,14.39
2017-10-26T17:09:11.878Z,14.35
2017-10-26T17:11:39.545Z,14.46
2017-10-26T17:14:07.102Z,14.45
2017-10-26T17:16:34.693Z,14.43
2017-10-26T17:19:02.293Z,14.41
2017-10-26T17:21:30.059Z,14.34
2017-10-26T17:23:57.644Z,14.28
2017-10-26T17:26:25.231Z,14.20
2017-10-26T17:28:52.848Z,14.16
2017-10-26T17:31:20.487Z,14.05
2017-10-26T17:33:48.152Z,14.16
2017-10-26T17:36:15.787Z,14.15
2017-10-26T17:38:43.431Z,14.06
2017-10-26T17:41:10.999Z,14.18
2017-10-26T17:43:38.750Z,14.27
2017-10-26T17:46:06.470Z,14.45
2017-10-26T17:48:34.029Z,14.52
2017-10-26T17:51:01.626Z,14.66
2017-10-26T17:53:29.253Z,14.72
2017-10-26T17:55:56.852Z,14.76
2017-10-26T17:58:24.396Z,14.75
2017-10-26T18:00:51.996Z,14.75
2017-10-26T18:03:19.956Z,14.81
2017-10-26T18:05:47.528Z,14.82
2017-10-26T18:08:16.094Z,14.77
2017-10-26T18:10:43.670Z,14.75
2017-10-26T18:13:11.235Z,14.76
2017-10-26T18:15:38.904Z,14.81
2017-10-26T18:18:06.530Z,14.80
2017-10-26T18:20:34.159Z,14.89
2017-10-26T18:23:01.776Z,14.91
2017-10-26T18:25:29.570Z,14.76
2017-10-26T18:27:57.150Z,14.65
2017-10-26T18:30:24.822Z,14.61
2017-10-26T18:32:52.413Z,14.57
2017-10-26T18:35:19.980Z,14.47
2017-10-26T18:37:47.609Z,14.54
2017-10-26T18:40:15.398Z,14.56
2017-10-26T18:42:43.189Z,14.63
2017-10-26T18:45:10.896Z,14.65
2017-10-26T18:47:38.759Z,14.53
2017-10-26T18:50:06.355Z,14.52
2017-10-26T18:52:34.007Z,14.41
2017-10-26T18:55:01.585Z,14.45
2017-10-26T18:57:29.142Z,14.36
2017-10-26T18:59:59.831Z,14.32
2017-10-26T19:02:30.999Z,14.43
2017-10-26T19:05:03.047Z,14.45
2017-10-26T19:07:50.867Z,14.42
2017-10-26T19:13:04.066Z,14.52
2017-10-26T19:15:31.695Z,14.46
2017-10-26T19:17:59.279Z,14.32
2017-10-26T19:20:26.902Z,14.16
2017-10-26T19:22:54.653Z,14.06
2017-10-26T19:25:22.218Z,14.16
2017-10-26T19:27:50.613Z,14.13
2017-10-26T19:30:18.193Z,14.13
2017-10-26T19:32:45.711Z,14.03
2017-10-26T19:35:13.240Z,14.01
2017-10-26T19:37:40.818Z,14.05
2017-10-26T19:40:08.523Z,14.00
2017-10-26T19:42:36.095Z,13.92
2017-10-26T19:45:04.390Z,13.90
2017-10-26T19:47:31.982Z,13.92
2017-10-26T19:49:59.540Z,14.01
2017-10-26T19:52:27.135Z,14.06
2017-10-26T19:54:54.729Z,14.08
2017-10-26T19:57:22.298Z,14.03
2017-10-26T19:59:49.903Z,13.98
2017-10-26T20:02:17.487Z,13.98
2017-10-26T20:04:45.020Z,14.17
2017-10-26T20:07:12.570Z,14.06
2017-10-26T20:09:40.174Z,13.93
2017-10-26T20:12:07.769Z,13.67
2017-10-26T20:14:35.384Z,13.74
2017-10-26T20:17:03.001Z,13.53
2017-10-26T20:19:30.535Z,13.41
2017-10-26T20:21:58.121Z,13.36
2017-10-26T20:24:25.688Z,13.35
2017-10-26T20:26:53.226Z,13.30
2017-10-26T20:29:20.836Z,13.52
2017-10-26T20:31:48.405Z,13.61
2017-10-26T20:34:16.835Z,13.44
2017-10-26T20:36:44.696Z,13.42
2017-10-26T20:39:12.365Z,13.19
2017-10-26T20:41:39.939Z,13.20
2017-10-26T20:44:07.467Z,12.38
2017-10-26T20:46:35.064Z,12.52
2017-10-26T20:49:08.227Z,12.85
2017-10-26T20:51:41.524Z,12.85
2017-10-26T20:54:14.612Z,12.58
2017-10-26T20:56:47.758Z,12.49
2017-10-26T20:59:20.941Z,12.76
2017-10-26T21:01:54.228Z,12.98
2017-10-26T21:04:27.414Z,12.47
2017-10-26T21:06:55.075Z,12.66
2017-10-26T21:09:25.549Z,12.65
2017-10-26T21:11:58.668Z,12.76
2017-10-26T21:14:31.054Z,12.84
2017-10-26T21:17:00.304Z,12.99
2017-10-26T21:19:28.110Z,11.84
2017-10-26T21:21:56.235Z,12.20
2017-10-26T21:24:24.251Z,12.33
2017-10-26T21:26:53.114Z,12.28
2017-10-26T21:29:20.993Z,12.22
2017-10-26T21:31:51.722Z,11.92
2017-10-26T21:34:20.613Z,12.15
2017-10-26T21:36:48.366Z,11.89
2017-10-26T21:39:16.552Z,12.08
2017-10-26T21:41:46.070Z,11.85
2017-10-26T21:44:14.481Z,11.88
2017-10-26T21:46:46.967Z,12.07
2017-10-26T21:49:14.607Z,12.08
2017-10-26T21:51:43.867Z,11.89
2017-10-26T21:54:11.500Z,11.99
2017-10-26T21:56:39.135Z,12.16
2017-10-26T21:59:06.746Z,12.03
2017-10-26T22:01:34.407Z,11.83
2017-10-26T22:04:01.963Z,11.98
2017-10-26T22:06:29.498Z,11.92
2017-10-26T22:08:57.063Z,11.78
2017-10-26T22:11:24.665Z,11.71
2017-10-26T22:13:52.231Z,11.55
2017-10-26T22:16:19.871Z,11.65
2017-10-26T22:18:47.404Z,11.58
2017-10-26T22:21:15.109Z,11.50
2017-10-26T22:23:42.803Z,11.76
2017-10-26T22:26:11.551Z,11.91
2017-10-26T22:28:39.302Z,11.70
2017-10-26T22:31:06.922Z,11.75
2017-10-26T22:33:34.736Z,11.39
2017-10-26T22:36:02.355Z,11.39
2017-10-26T22:38:29.964Z,11.17
2017-10-26T22:40:57.476Z,11.00
2017-10-26T22:43:25.064Z,11.04
2017-10-26T22:45:52.721Z,11.48
2017-10-26T22:48:20.309Z,11.38
2017-10-26T22:50:47.953Z,10.92
2017-10-26T22:53:15.563Z,11.37
2017-10-26T22:58:10.014Z,11.06
2017-10-26T23:00:37.594Z,10.98
2017-10-26T23:03:05.134Z,10.93
2017-10-26T23:05:32.739Z,10.65
2017-10-26T23:08:00.443Z,10.77
2017-10-26T23:10:27.972Z,10.79
2017-10-26T23:12:55.520Z,10.75
2017-10-26T23:15:23.119Z,10.56
2017-10-26T23:17:50.729Z,10.58
2017-10-26T23:20:19.519Z,10.36
2017-10-26T23:22:47.095Z,10.09
2017-10-26T23:25:14.893Z,10.16
2017-10-26T23:27:42.461Z,10.16
2017-10-26T23:30:10.086Z,10.05
2017-10-26T23:32:37.608Z,10.08
2017-10-26T23:35:05.406Z,10.06
2017-10-26T23:37:33.006Z,10.02
2017-10-26T23:40:00.544Z,10.07
2017-10-26T23:42:28.171Z,9.93
2017-10-26T23:44:55.752Z,9.80
2017-10-26T23:47:23.331Z,9.89
2017-10-26T23:49:50.989Z,9.96
2017-10-26T23:52:18.634Z,9.95
2017-10-26T23:54:46.214Z,9.89
2017-10-26T23:57:14.130Z,9.98
2017-10-26T23:59:41.771Z,9.83
